sensor_id;sensor_type;location;lat;lon;timestamp;temperature;humidity
5009;DHT22;2523;51.058;6.922;2023-02-04T00:00:48;8.60;99.90
5009;DHT22;2523;51.058;6.922;2023-02-04T00:03:14;8.60;99.90
5009;DHT22;2523;51.058;6.922;2023-02-04T00:05:40;8.60;99.90
5009;DHT22;2523;51.058;6.922;2023-02-04T00:08:06;8.60;99.90
5009;DHT22;2523;51.058;6.922;2023-02-04T00:10:32;8.60;99.90
5009;DHT22;2523;51.058;6.922;2023-02-04T00:12:57;8.60;99.90
5009;DHT22;2523;51.058;6.922;2023-02-04T00:15:23;8.60;99.90
5009;DHT22;2523;51.058;6.922;2023-02-04T00:17:48;8.60;99.90
5009;DHT22;2523;51.058;6.922;2023-02-04T00:20:14;8.60;99.90
5009;DHT22;2523;51.058;6.922;2023-02-04T00:22:39;8.60;99.90
5009;DHT22;2523;51.058;6.922;2023-02-04T00:25:06;8.60;99.90
5009;DHT22;2523;51.058;6.922;2023-02-04T00:27:31;8.60;99.90
5009;DHT22;2523;51.058;6.922;2023-02-04T00:29:57;8.60;99.90
5009;DHT22;2523;51.058;6.922;2023-02-04T00:32:23;8.60;99.90
5009;DHT22;2523;51.058;6.922;2023-02-04T00:34:48;8.60;99.90
5009;DHT22;2523;51.058;6.922;2023-02-04T00:37:14;8.50;99.90
5009;DHT22;2523;51.058;6.922;2023-02-04T00:39:39;8.50;99.90
5009;DHT22;2523;51.058;6.922;2023-02-04T00:42:05;8.50;99.90
5009;DHT22;2523;51.058;6.922;2023-02-04T00:44:31;8.50;99.90
5009;DHT22;2523;51.058;6.922;2023-02-04T00:46:56;8.50;99.90
5009;DHT22;2523;51.058;6.922;2023-02-04T00:49:22;8.50;99.90
5009;DHT22;2523;51.058;6.922;2023-02-04T00:51:48;8.50;99.90
5009;DHT22;2523;51.058;6.922;2023-02-04T00:54:14;8.50;99.90
5009;DHT22;2523;51.058;6.922;2023-02-04T00:56:43;8.50;99.90
5009;DHT22;2523;51.058;6.922;2023-02-04T00:59:08;8.50;99.90
5009;DHT22;2523;51.058;6.922;2023-02-04T01:01:34;8.40;99.90
5009;DHT22;2523;51.058;6.922;2023-02-04T01:04:00;8.40;99.90
5009;DHT22;2523;51.058;6.922;2023-02-04T01:06:25;8.40;99.90
5009;DHT22;2523;51.058;6.922;2023-02-04T01:08:51;8.40;99.90
5009;DHT22;2523;51.058;6.922;2023-02-04T01:11:17;8.40;99.90
5009;DHT22;2523;51.058;6.922;2023-02-04T01:13:42;8.40;99.90
5009;DHT22;2523;51.058;6.922;2023-02-04T01:16:08;8.40;99.90
5009;DHT22;2523;51.058;6.922;2023-02-04T01:18:34;8.30;99.90
5009;DHT22;2523;51.058;6.922;2023-02-04T01:21:00;8.30;99.90
5009;DHT22;2523;51.058;6.922;2023-02-04T01:23:25;8.30;99.90
5009;DHT22;2523;51.058;6.922;2023-02-04T01:25:51;8.30;99.90
5009;DHT22;2523;51.058;6.922;2023-02-04T01:28:16;8.30;99.90
5009;DHT22;2523;51.058;6.922;2023-02-04T01:30:42;8.30;99.90
5009;DHT22;2523;51.058;6.922;2023-02-04T01:33:07;8.30;99.90
5009;DHT22;2523;51.058;6.922;2023-02-04T01:35:33;8.30;99.90
5009;DHT22;2523;51.058;6.922;2023-02-04T01:37:58;8.30;99.90
5009;DHT22;2523;51.058;6.922;2023-02-04T01:40:24;8.30;99.90
5009;DHT22;2523;51.058;6.922;2023-02-04T01:42:50;8.30;99.90
5009;DHT22;2523;51.058;6.922;2023-02-04T01:45:16;8.30;99.90
5009;DHT22;2523;51.058;6.922;2023-02-04T01:47:42;8.30;99.90
5009;DHT22;2523;51.058;6.922;2023-02-04T01:50:12;8.30;99.90
5009;DHT22;2523;51.058;6.922;2023-02-04T01:52:39;8.30;99.90
5009;DHT22;2523;51.058;6.922;2023-02-04T01:55:18;8.30;99.90
5009;DHT22;2523;51.058;6.922;2023-02-04T01:57:44;8.30;99.90
5009;DHT22;2523;51.058;6.922;2023-02-04T02:00:16;8.30;99.90
5009;DHT22;2523;51.058;6.922;2023-02-04T02:02:48;8.20;99.90
5009;DHT22;2523;51.058;6.922;2023-02-04T02:05:30;8.20;99.90
5009;DHT22;2523;51.058;6.922;2023-02-04T02:07:57;8.20;99.90
5009;DHT22;2523;51.058;6.922;2023-02-04T02:10:24;8.20;99.90
5009;DHT22;2523;51.058;6.922;2023-02-04T02:12:50;8.20;99.90
5009;DHT22;2523;51.058;6.922;2023-02-04T02:15:17;8.20;99.90
5009;DHT22;2523;51.058;6.922;2023-02-04T02:17:43;8.20;99.90
5009;DHT22;2523;51.058;6.922;2023-02-04T02:20:11;8.20;99.90
5009;DHT22;2523;51.058;6.922;2023-02-04T02:25:29;8.10;99.90
5009;DHT22;2523;51.058;6.922;2023-02-04T02:27:55;8.20;99.90
5009;DHT22;2523;51.058;6.922;2023-02-04T02:30:21;8.10;99.90
5009;DHT22;2523;51.058;6.922;2023-02-04T02:32:49;8.10;99.90
5009;DHT22;2523;51.058;6.922;2023-02-04T02:35:15;8.10;99.90
5009;DHT22;2523;51.058;6.922;2023-02-04T02:37:41;8.20;99.90
5009;DHT22;2523;51.058;6.922;2023-02-04T02:40:07;8.10;99.90
5009;DHT22;2523;51.058;6.922;2023-02-04T02:42:33;8.10;99.90
5009;DHT22;2523;51.058;6.922;2023-02-04T02:44:59;8.10;99.90
5009;DHT22;2523;51.058;6.922;2023-02-04T02:47:27;8.10;99.90
5009;DHT22;2523;51.058;6.922;2023-02-04T02:49:53;8.10;99.90
5009;DHT22;2523;51.058;6.922;2023-02-04T02:52:20;8.10;99.90
5009;DHT22;2523;51.058;6.922;2023-02-04T02:54:47;8.10;99.90
5009;DHT22;2523;51.058;6.922;2023-02-04T02:57:15;8.10;99.90
5009;DHT22;2523;51.058;6.922;2023-02-04T02:59:41;8.00;99.90
5009;DHT22;2523;51.058;6.922;2023-02-04T03:02:09;8.00;99.90
5009;DHT22;2523;51.058;6.922;2023-02-04T03:04:44;8.00;99.90
5009;DHT22;2523;51.058;6.922;2023-02-04T03:07:11;8.10;99.90
5009;DHT22;2523;51.058;6.922;2023-02-04T03:09:38;8.00;99.90
5009;DHT22;2523;51.058;6.922;2023-02-04T03:12:04;8.00;99.90
5009;DHT22;2523;51.058;6.922;2023-02-04T03:14:31;8.00;99.90
5009;DHT22;2523;51.058;6.922;2023-02-04T03:16:57;8.00;99.90
5009;DHT22;2523;51.058;6.922;2023-02-04T03:19:24;8.00;99.90
5009;DHT22;2523;51.058;6.922;2023-02-04T03:21:50;8.00;99.90
5009;DHT22;2523;51.058;6.922;2023-02-04T03:24:16;8.00;99.90
5009;DHT22;2523;51.058;6.922;2023-02-04T03:26:42;8.00;99.90
5009;DHT22;2523;51.058;6.922;2023-02-04T03:29:11;8.00;99.90
5009;DHT22;2523;51.058;6.922;2023-02-04T03:31:36;7.90;99.90
5009;DHT22;2523;51.058;6.922;2023-02-04T03:34:02;7.90;99.90
5009;DHT22;2523;51.058;6.922;2023-02-04T03:36:28;7.90;99.90
5009;DHT22;2523;51.058;6.922;2023-02-04T03:38:54;8.00;99.90
5009;DHT22;2523;51.058;6.922;2023-02-04T03:41:19;8.00;99.90
5009;DHT22;2523;51.058;6.922;2023-02-04T03:43:45;7.90;99.90
5009;DHT22;2523;51.058;6.922;2023-02-04T03:46:10;7.90;99.90
5009;DHT22;2523;51.058;6.922;2023-02-04T03:48:36;7.90;99.90
5009;DHT22;2523;51.058;6.922;2023-02-04T03:51:01;7.90;99.90
5009;DHT22;2523;51.058;6.922;2023-02-04T03:53:27;7.90;99.90
5009;DHT22;2523;51.058;6.922;2023-02-04T03:55:52;8.00;99.90
5009;DHT22;2523;51.058;6.922;2023-02-04T03:58:18;7.90;99.90
5009;DHT22;2523;51.058;6.922;2023-02-04T04:00:43;7.90;99.90
5009;DHT22;2523;51.058;6.922;2023-02-04T04:03:09;7.90;99.90
5009;DHT22;2523;51.058;6.922;2023-02-04T04:05:35;7.90;99.90
5009;DHT22;2523;51.058;6.922;2023-02-04T04:08:00;7.90;99.90
5009;DHT22;2523;51.058;6.922;2023-02-04T04:10:26;7.90;99.90
5009;DHT22;2523;51.058;6.922;2023-02-04T04:12:53;7.90;99.90
5009;DHT22;2523;51.058;6.922;2023-02-04T04:15:19;7.90;99.90
5009;DHT22;2523;51.058;6.922;2023-02-04T04:17:44;7.90;99.90
5009;DHT22;2523;51.058;6.922;2023-02-04T04:20:10;7.90;99.90
5009;DHT22;2523;51.058;6.922;2023-02-04T04:22:36;7.90;99.90
5009;DHT22;2523;51.058;6.922;2023-02-04T04:25:02;7.80;99.90
5009;DHT22;2523;51.058;6.922;2023-02-04T04:27:27;7.90;99.90
5009;DHT22;2523;51.058;6.922;2023-02-04T04:29:54;7.80;99.90
5009;DHT22;2523;51.058;6.922;2023-02-04T04:32:20;7.80;99.90
5009;DHT22;2523;51.058;6.922;2023-02-04T04:34:45;7.80;99.90
5009;DHT22;2523;51.058;6.922;2023-02-04T04:37:11;7.80;99.90
5009;DHT22;2523;51.058;6.922;2023-02-04T04:39:36;7.70;99.90
5009;DHT22;2523;51.058;6.922;2023-02-04T04:42:02;7.70;99.90
5009;DHT22;2523;51.058;6.922;2023-02-04T04:44:27;7.60;99.90
5009;DHT22;2523;51.058;6.922;2023-02-04T04:46:53;7.60;99.90
5009;DHT22;2523;51.058;6.922;2023-02-04T04:49:19;7.60;99.90
5009;DHT22;2523;51.058;6.922;2023-02-04T04:51:44;7.60;99.90
5009;DHT22;2523;51.058;6.922;2023-02-04T04:54:10;7.60;99.90
5009;DHT22;2523;51.058;6.922;2023-02-04T04:56:35;7.60;99.90
5009;DHT22;2523;51.058;6.922;2023-02-04T04:59:01;7.60;99.90
5009;DHT22;2523;51.058;6.922;2023-02-04T05:01:27;7.60;99.90
5009;DHT22;2523;51.058;6.922;2023-02-04T05:03:53;7.50;99.90
5009;DHT22;2523;51.058;6.922;2023-02-04T05:06:18;7.60;99.90
5009;DHT22;2523;51.058;6.922;2023-02-04T05:08:52;7.60;99.90
5009;DHT22;2523;51.058;6.922;2023-02-04T05:11:18;7.50;99.90
5009;DHT22;2523;51.058;6.922;2023-02-04T05:13:44;7.50;99.90
5009;DHT22;2523;51.058;6.922;2023-02-04T05:16:09;7.50;99.90
5009;DHT22;2523;51.058;6.922;2023-02-04T05:18:38;7.50;99.90
5009;DHT22;2523;51.058;6.922;2023-02-04T05:21:04;7.50;99.90
5009;DHT22;2523;51.058;6.922;2023-02-04T05:23:30;7.50;99.90
5009;DHT22;2523;51.058;6.922;2023-02-04T05:25:55;7.50;99.90
5009;DHT22;2523;51.058;6.922;2023-02-04T05:28:21;7.50;99.90
5009;DHT22;2523;51.058;6.922;2023-02-04T05:30:46;7.50;99.90
5009;DHT22;2523;51.058;6.922;2023-02-04T05:33:12;7.50;99.90
5009;DHT22;2523;51.058;6.922;2023-02-04T05:35:38;7.50;99.90
5009;DHT22;2523;51.058;6.922;2023-02-04T05:38:03;7.50;99.90
5009;DHT22;2523;51.058;6.922;2023-02-04T05:40:29;7.50;99.90
5009;DHT22;2523;51.058;6.922;2023-02-04T05:42:55;7.50;99.90
5009;DHT22;2523;51.058;6.922;2023-02-04T05:45:20;7.50;99.90
5009;DHT22;2523;51.058;6.922;2023-02-04T05:47:46;7.50;99.90
5009;DHT22;2523;51.058;6.922;2023-02-04T05:50:11;7.50;99.90
5009;DHT22;2523;51.058;6.922;2023-02-04T05:52:37;7.50;99.90
5009;DHT22;2523;51.058;6.922;2023-02-04T05:55:03;7.50;99.90
5009;DHT22;2523;51.058;6.922;2023-02-04T05:57:29;7.40;99.90
5009;DHT22;2523;51.058;6.922;2023-02-04T05:59:54;7.40;99.90
5009;DHT22;2523;51.058;6.922;2023-02-04T06:02:20;7.40;99.90
5009;DHT22;2523;51.058;6.922;2023-02-04T06:04:45;7.40;99.90
5009;DHT22;2523;51.058;6.922;2023-02-04T06:07:11;7.50;99.90
5009;DHT22;2523;51.058;6.922;2023-02-04T06:09:36;7.40;99.90
5009;DHT22;2523;51.058;6.922;2023-02-04T06:12:02;7.50;99.90
5009;DHT22;2523;51.058;6.922;2023-02-04T06:14:28;7.50;99.90
5009;DHT22;2523;51.058;6.922;2023-02-04T06:16:53;7.50;99.90
5009;DHT22;2523;51.058;6.922;2023-02-04T06:19:19;7.50;99.90
5009;DHT22;2523;51.058;6.922;2023-02-04T06:21:44;7.50;99.90
5009;DHT22;2523;51.058;6.922;2023-02-04T06:24:10;7.50;99.90
5009;DHT22;2523;51.058;6.922;2023-02-04T06:26:35;7.50;99.90
5009;DHT22;2523;51.058;6.922;2023-02-04T06:29:01;7.40;99.90
5009;DHT22;2523;51.058;6.922;2023-02-04T06:31:26;7.40;99.90
5009;DHT22;2523;51.058;6.922;2023-02-04T06:33:52;7.40;99.90
5009;DHT22;2523;51.058;6.922;2023-02-04T06:36:17;7.50;99.90
5009;DHT22;2523;51.058;6.922;2023-02-04T06:38:43;7.50;99.90
5009;DHT22;2523;51.058;6.922;2023-02-04T06:41:09;7.40;99.90
5009;DHT22;2523;51.058;6.922;2023-02-04T06:43:34;7.40;99.90
5009;DHT22;2523;51.058;6.922;2023-02-04T06:46:00;7.40;99.90
5009;DHT22;2523;51.058;6.922;2023-02-04T06:48:25;7.40;99.90
5009;DHT22;2523;51.058;6.922;2023-02-04T06:50:51;7.40;99.90
5009;DHT22;2523;51.058;6.922;2023-02-04T06:53:16;7.40;99.90
5009;DHT22;2523;51.058;6.922;2023-02-04T06:55:42;7.40;99.90
5009;DHT22;2523;51.058;6.922;2023-02-04T06:58:08;7.40;99.90
5009;DHT22;2523;51.058;6.922;2023-02-04T07:00:34;7.30;99.90
5009;DHT22;2523;51.058;6.922;2023-02-04T07:02:59;7.40;99.90
5009;DHT22;2523;51.058;6.922;2023-02-04T07:05:25;7.30;99.90
5009;DHT22;2523;51.058;6.922;2023-02-04T07:07:50;7.40;99.90
5009;DHT22;2523;51.058;6.922;2023-02-04T07:10:17;7.40;99.90
5009;DHT22;2523;51.058;6.922;2023-02-04T07:12:43;7.40;99.90
5009;DHT22;2523;51.058;6.922;2023-02-04T07:15:09;7.40;99.90
5009;DHT22;2523;51.058;6.922;2023-02-04T07:17:34;7.40;99.90
5009;DHT22;2523;51.058;6.922;2023-02-04T07:20:00;7.40;99.90
5009;DHT22;2523;51.058;6.922;2023-02-04T07:22:25;7.40;99.90
5009;DHT22;2523;51.058;6.922;2023-02-04T07:24:51;7.40;99.90
5009;DHT22;2523;51.058;6.922;2023-02-04T07:27:16;7.40;99.90
5009;DHT22;2523;51.058;6.922;2023-02-04T07:29:42;7.40;99.90
5009;DHT22;2523;51.058;6.922;2023-02-04T07:32:08;7.30;99.90
5009;DHT22;2523;51.058;6.922;2023-02-04T07:34:33;7.40;99.90
5009;DHT22;2523;51.058;6.922;2023-02-04T07:36:59;7.40;99.90
5009;DHT22;2523;51.058;6.922;2023-02-04T07:39:25;7.40;99.90
5009;DHT22;2523;51.058;6.922;2023-02-04T07:41:50;7.40;99.90
5009;DHT22;2523;51.058;6.922;2023-02-04T07:44:16;7.40;99.90
5009;DHT22;2523;51.058;6.922;2023-02-04T07:46:41;7.50;99.90
5009;DHT22;2523;51.058;6.922;2023-02-04T07:49:07;7.50;99.90
5009;DHT22;2523;51.058;6.922;2023-02-04T07:51:32;7.50;99.90
5009;DHT22;2523;51.058;6.922;2023-02-04T07:53:58;7.50;99.90
5009;DHT22;2523;51.058;6.922;2023-02-04T07:56:23;7.50;99.90
5009;DHT22;2523;51.058;6.922;2023-02-04T07:58:49;7.50;99.90
5009;DHT22;2523;51.058;6.922;2023-02-04T08:01:14;7.60;99.90
5009;DHT22;2523;51.058;6.922;2023-02-04T08:03:41;7.50;99.90
5009;DHT22;2523;51.058;6.922;2023-02-04T08:06:07;7.60;99.90
5009;DHT22;2523;51.058;6.922;2023-02-04T08:08:33;7.60;99.90
5009;DHT22;2523;51.058;6.922;2023-02-04T08:10:58;7.60;99.90
5009;DHT22;2523;51.058;6.922;2023-02-04T08:13:24;7.60;99.90
5009;DHT22;2523;51.058;6.922;2023-02-04T08:15:50;7.60;99.90
5009;DHT22;2523;51.058;6.922;2023-02-04T08:18:15;7.70;99.90
5009;DHT22;2523;51.058;6.922;2023-02-04T08:20:41;7.70;99.90
5009;DHT22;2523;51.058;6.922;2023-02-04T08:23:06;7.80;99.90
5009;DHT22;2523;51.058;6.922;2023-02-04T08:25:32;7.80;99.90
5009;DHT22;2523;51.058;6.922;2023-02-04T08:27:58;7.80;99.90
5009;DHT22;2523;51.058;6.922;2023-02-04T08:30:23;7.90;99.90
5009;DHT22;2523;51.058;6.922;2023-02-04T08:32:49;7.90;99.90
5009;DHT22;2523;51.058;6.922;2023-02-04T08:35:15;8.00;99.90
5009;DHT22;2523;51.058;6.922;2023-02-04T08:37:40;7.90;99.90
5009;DHT22;2523;51.058;6.922;2023-02-04T08:40:06;7.80;99.90
5009;DHT22;2523;51.058;6.922;2023-02-04T08:42:32;7.90;99.90
5009;DHT22;2523;51.058;6.922;2023-02-04T08:44:59;7.80;99.90
5009;DHT22;2523;51.058;6.922;2023-02-04T08:47:24;7.90;99.90
5009;DHT22;2523;51.058;6.922;2023-02-04T08:49:50;7.90;99.90
5009;DHT22;2523;51.058;6.922;2023-02-04T08:52:15;7.90;99.90
5009;DHT22;2523;51.058;6.922;2023-02-04T08:54:41;7.90;99.90
5009;DHT22;2523;51.058;6.922;2023-02-04T08:57:06;8.00;99.90
5009;DHT22;2523;51.058;6.922;2023-02-04T08:59:33;8.10;99.90
5009;DHT22;2523;51.058;6.922;2023-02-04T09:01:59;8.20;99.90
5009;DHT22;2523;51.058;6.922;2023-02-04T09:04:24;8.20;99.90
5009;DHT22;2523;51.058;6.922;2023-02-04T09:06:50;8.20;99.90
5009;DHT22;2523;51.058;6.922;2023-02-04T09:09:16;8.30;99.90
5009;DHT22;2523;51.058;6.922;2023-02-04T09:11:42;8.30;99.90
5009;DHT22;2523;51.058;6.922;2023-02-04T09:14:07;8.40;99.90
5009;DHT22;2523;51.058;6.922;2023-02-04T09:16:33;8.60;99.90
5009;DHT22;2523;51.058;6.922;2023-02-04T09:18:59;8.60;99.90
5009;DHT22;2523;51.058;6.922;2023-02-04T09:21:26;8.70;99.90
5009;DHT22;2523;51.058;6.922;2023-02-04T09:23:52;8.70;99.90
5009;DHT22;2523;51.058;6.922;2023-02-04T09:26:18;8.80;99.90
5009;DHT22;2523;51.058;6.922;2023-02-04T09:28:43;8.80;99.90
5009;DHT22;2523;51.058;6.922;2023-02-04T09:31:09;8.80;99.90
5009;DHT22;2523;51.058;6.922;2023-02-04T09:33:35;8.80;99.90
5009;DHT22;2523;51.058;6.922;2023-02-04T09:36:01;8.80;99.90
5009;DHT22;2523;51.058;6.922;2023-02-04T09:38:27;8.80;99.90
5009;DHT22;2523;51.058;6.922;2023-02-04T09:41:04;8.90;99.90
5009;DHT22;2523;51.058;6.922;2023-02-04T09:43:34;8.80;99.90
5009;DHT22;2523;51.058;6.922;2023-02-04T09:46:01;8.80;99.90
5009;DHT22;2523;51.058;6.922;2023-02-04T09:48:27;8.90;99.90
5009;DHT22;2523;51.058;6.922;2023-02-04T09:51:03;8.90;99.90
5009;DHT22;2523;51.058;6.922;2023-02-04T09:53:29;8.80;99.90
5009;DHT22;2523;51.058;6.922;2023-02-04T09:55:55;8.90;99.90
5009;DHT22;2523;51.058;6.922;2023-02-04T09:58:22;9.00;99.90
5009;DHT22;2523;51.058;6.922;2023-02-04T10:00:55;8.90;99.90
5009;DHT22;2523;51.058;6.922;2023-02-04T10:03:22;9.00;99.90
5009;DHT22;2523;51.058;6.922;2023-02-04T10:05:48;9.00;99.90
5009;DHT22;2523;51.058;6.922;2023-02-04T10:08:20;9.00;99.90
5009;DHT22;2523;51.058;6.922;2023-02-04T10:10:47;9.00;99.90
5009;DHT22;2523;51.058;6.922;2023-02-04T10:13:18;8.90;99.90
5009;DHT22;2523;51.058;6.922;2023-02-04T10:15:45;8.90;99.90
5009;DHT22;2523;51.058;6.922;2023-02-04T10:18:16;9.00;99.90
5009;DHT22;2523;51.058;6.922;2023-02-04T10:20:43;9.00;99.90
5009;DHT22;2523;51.058;6.922;2023-02-04T10:23:09;9.10;99.90
5009;DHT22;2523;51.058;6.922;2023-02-04T10:25:35;9.00;99.90
5009;DHT22;2523;51.058;6.922;2023-02-04T10:28:01;9.00;99.90
5009;DHT22;2523;51.058;6.922;2023-02-04T10:30:38;9.10;99.90
5009;DHT22;2523;51.058;6.922;2023-02-04T10:33:22;9.10;99.90
5009;DHT22;2523;51.058;6.922;2023-02-04T10:35:53;9.10;99.90
5009;DHT22;2523;51.058;6.922;2023-02-04T10:38:19;9.10;99.90
5009;DHT22;2523;51.058;6.922;2023-02-04T10:40:45;9.20;99.90
5009;DHT22;2523;51.058;6.922;2023-02-04T10:43:21;9.30;99.90
5009;DHT22;2523;51.058;6.922;2023-02-04T10:45:55;9.30;99.90
5009;DHT22;2523;51.058;6.922;2023-02-04T10:48:22;9.30;99.90
5009;DHT22;2523;51.058;6.922;2023-02-04T10:50:49;9.30;99.90
5009;DHT22;2523;51.058;6.922;2023-02-04T10:53:18;9.30;99.90
5009;DHT22;2523;51.058;6.922;2023-02-04T10:56:02;9.30;99.90
5009;DHT22;2523;51.058;6.922;2023-02-04T10:58:29;9.20;99.90
5009;DHT22;2523;51.058;6.922;2023-02-04T11:00:56;9.10;99.90
5009;DHT22;2523;51.058;6.922;2023-02-04T11:03:25;9.20;99.90
5009;DHT22;2523;51.058;6.922;2023-02-04T11:05:52;9.20;99.90
5009;DHT22;2523;51.058;6.922;2023-02-04T11:08:23;9.20;99.90
5009;DHT22;2523;51.058;6.922;2023-02-04T11:10:51;9.20;99.90
5009;DHT22;2523;51.058;6.922;2023-02-04T11:13:41;9.20;99.90
5009;DHT22;2523;51.058;6.922;2023-02-04T11:18:48;9.20;99.90
5009;DHT22;2523;51.058;6.922;2023-02-04T11:24:24;9.30;99.90
5009;DHT22;2523;51.058;6.922;2023-02-04T11:26:51;9.20;99.90
5009;DHT22;2523;51.058;6.922;2023-02-04T11:29:26;9.20;99.90
5009;DHT22;2523;51.058;6.922;2023-02-04T11:31:59;9.10;99.90
5009;DHT22;2523;51.058;6.922;2023-02-04T11:34:28;9.20;99.90
5009;DHT22;2523;51.058;6.922;2023-02-04T11:42:04;9.50;99.90
5009;DHT22;2523;51.058;6.922;2023-02-04T11:44:30;9.70;99.90
5009;DHT22;2523;51.058;6.922;2023-02-04T11:47:07;9.90;99.90
5009;DHT22;2523;51.058;6.922;2023-02-04T11:49:35;9.90;99.90
5009;DHT22;2523;51.058;6.922;2023-02-04T11:52:12;9.80;99.90
5009;DHT22;2523;51.058;6.922;2023-02-04T11:54:38;9.80;99.90
5009;DHT22;2523;51.058;6.922;2023-02-04T11:57:04;9.80;99.90
5009;DHT22;2523;51.058;6.922;2023-02-04T11:59:29;9.80;99.90
5009;DHT22;2523;51.058;6.922;2023-02-04T12:02:25;9.70;99.90
5009;DHT22;2523;51.058;6.922;2023-02-04T12:05:08;9.80;99.90
5009;DHT22;2523;51.058;6.922;2023-02-04T12:07:35;10.00;99.90
5009;DHT22;2523;51.058;6.922;2023-02-04T12:12:48;10.10;99.90
5009;DHT22;2523;51.058;6.922;2023-02-04T12:15:19;10.20;99.90
5009;DHT22;2523;51.058;6.922;2023-02-04T12:17:45;10.30;99.90
5009;DHT22;2523;51.058;6.922;2023-02-04T12:20:12;10.40;99.90
5009;DHT22;2523;51.058;6.922;2023-02-04T12:22:38;10.40;99.90
5009;DHT22;2523;51.058;6.922;2023-02-04T12:25:04;10.40;99.90
5009;DHT22;2523;51.058;6.922;2023-02-04T12:27:30;10.50;99.90
5009;DHT22;2523;51.058;6.922;2023-02-04T12:29:55;10.50;99.90
5009;DHT22;2523;51.058;6.922;2023-02-04T12:32:21;10.50;99.90
5009;DHT22;2523;51.058;6.922;2023-02-04T12:34:46;10.40;99.90
5009;DHT22;2523;51.058;6.922;2023-02-04T12:37:12;10.40;99.90
5009;DHT22;2523;51.058;6.922;2023-02-04T12:39:37;10.40;99.90
5009;DHT22;2523;51.058;6.922;2023-02-04T12:42:03;10.40;99.90
5009;DHT22;2523;51.058;6.922;2023-02-04T12:44:29;10.40;99.90
5009;DHT22;2523;51.058;6.922;2023-02-04T12:46:54;10.30;99.90
5009;DHT22;2523;51.058;6.922;2023-02-04T12:49:20;10.40;99.90
5009;DHT22;2523;51.058;6.922;2023-02-04T12:51:49;10.40;99.90
5009;DHT22;2523;51.058;6.922;2023-02-04T12:54:14;10.50;99.90
5009;DHT22;2523;51.058;6.922;2023-02-04T12:56:40;10.50;99.90
5009;DHT22;2523;51.058;6.922;2023-02-04T12:59:05;10.60;99.90
5009;DHT22;2523;51.058;6.922;2023-02-04T13:01:31;10.70;99.90
5009;DHT22;2523;51.058;6.922;2023-02-04T13:03:57;10.80;99.90
5009;DHT22;2523;51.058;6.922;2023-02-04T13:06:23;10.90;99.90
5009;DHT22;2523;51.058;6.922;2023-02-04T13:08:49;10.80;99.90
5009;DHT22;2523;51.058;6.922;2023-02-04T13:11:14;10.80;99.90
5009;DHT22;2523;51.058;6.922;2023-02-04T13:13:40;10.70;99.90
5009;DHT22;2523;51.058;6.922;2023-02-04T13:16:05;10.80;99.90
5009;DHT22;2523;51.058;6.922;2023-02-04T13:18:31;10.80;99.90
5009;DHT22;2523;51.058;6.922;2023-02-04T13:20:58;10.90;99.90
5009;DHT22;2523;51.058;6.922;2023-02-04T13:23:23;10.90;99.90
5009;DHT22;2523;51.058;6.922;2023-02-04T13:25:49;11.10;99.90
5009;DHT22;2523;51.058;6.922;2023-02-04T13:28:14;11.20;99.90
5009;DHT22;2523;51.058;6.922;2023-02-04T13:30:40;11.30;99.90
5009;DHT22;2523;51.058;6.922;2023-02-04T13:33:05;11.60;99.90
5009;DHT22;2523;51.058;6.922;2023-02-04T13:35:31;11.80;99.90
5009;DHT22;2523;51.058;6.922;2023-02-04T13:37:57;12.10;99.90
5009;DHT22;2523;51.058;6.922;2023-02-04T13:40:22;12.50;99.90
5009;DHT22;2523;51.058;6.922;2023-02-04T13:42:48;12.90;99.90
5009;DHT22;2523;51.058;6.922;2023-02-04T13:45:13;13.00;99.90
5009;DHT22;2523;51.058;6.922;2023-02-04T13:47:40;13.20;99.90
5009;DHT22;2523;51.058;6.922;2023-02-04T13:50:06;13.00;99.90
5009;DHT22;2523;51.058;6.922;2023-02-04T13:52:31;12.90;99.90
5009;DHT22;2523;51.058;6.922;2023-02-04T13:54:58;12.70;99.90
5009;DHT22;2523;51.058;6.922;2023-02-04T13:57:24;12.50;99.90
5009;DHT22;2523;51.058;6.922;2023-02-04T13:59:49;12.10;99.90
5009;DHT22;2523;51.058;6.922;2023-02-04T14:02:15;11.80;99.90
5009;DHT22;2523;51.058;6.922;2023-02-04T14:04:41;11.40;99.90
5009;DHT22;2523;51.058;6.922;2023-02-04T14:07:08;11.20;99.90
5009;DHT22;2523;51.058;6.922;2023-02-04T14:09:33;11.10;99.90
5009;DHT22;2523;51.058;6.922;2023-02-04T14:11:59;11.00;99.90
5009;DHT22;2523;51.058;6.922;2023-02-04T14:14:24;10.90;99.90
5009;DHT22;2523;51.058;6.922;2023-02-04T14:16:50;10.80;99.90
5009;DHT22;2523;51.058;6.922;2023-02-04T14:19:15;10.90;99.90
5009;DHT22;2523;51.058;6.922;2023-02-04T14:21:41;10.90;99.90
5009;DHT22;2523;51.058;6.922;2023-02-04T14:24:06;10.80;99.90
5009;DHT22;2523;51.058;6.922;2023-02-04T14:26:32;10.70;99.90
5009;DHT22;2523;51.058;6.922;2023-02-04T14:28:58;10.60;99.90
5009;DHT22;2523;51.058;6.922;2023-02-04T14:31:23;10.60;99.90
5009;DHT22;2523;51.058;6.922;2023-02-04T14:33:49;10.50;99.90
5009;DHT22;2523;51.058;6.922;2023-02-04T14:36:14;10.40;99.90
5009;DHT22;2523;51.058;6.922;2023-02-04T14:38:40;10.30;99.90
5009;DHT22;2523;51.058;6.922;2023-02-04T14:41:05;10.20;99.90
5009;DHT22;2523;51.058;6.922;2023-02-04T14:43:31;10.00;99.90
5009;DHT22;2523;51.058;6.922;2023-02-04T14:46:03;10.00;99.90
5009;DHT22;2523;51.058;6.922;2023-02-04T14:48:29;9.90;99.90
5009;DHT22;2523;51.058;6.922;2023-02-04T14:50:54;9.80;99.90
5009;DHT22;2523;51.058;6.922;2023-02-04T14:53:20;9.80;99.90
5009;DHT22;2523;51.058;6.922;2023-02-04T14:55:45;9.70;99.90
5009;DHT22;2523;51.058;6.922;2023-02-04T14:58:11;9.70;99.90
5009;DHT22;2523;51.058;6.922;2023-02-04T15:00:36;9.70;99.90
5009;DHT22;2523;51.058;6.922;2023-02-04T15:03:02;9.70;99.90
5009;DHT22;2523;51.058;6.922;2023-02-04T15:05:28;9.70;99.90
5009;DHT22;2523;51.058;6.922;2023-02-04T15:07:53;9.60;99.90
5009;DHT22;2523;51.058;6.922;2023-02-04T15:10:19;9.70;99.90
5009;DHT22;2523;51.058;6.922;2023-02-04T15:12:45;9.60;99.90
5009;DHT22;2523;51.058;6.922;2023-02-04T15:15:11;9.50;99.90
5009;DHT22;2523;51.058;6.922;2023-02-04T15:17:36;9.50;99.90
5009;DHT22;2523;51.058;6.922;2023-02-04T15:20:02;9.50;99.90
5009;DHT22;2523;51.058;6.922;2023-02-04T15:22:28;9.40;99.90
5009;DHT22;2523;51.058;6.922;2023-02-04T15:24:54;9.40;99.90
5009;DHT22;2523;51.058;6.922;2023-02-04T15:27:19;9.40;99.90
5009;DHT22;2523;51.058;6.922;2023-02-04T15:29:45;9.40;99.90
5009;DHT22;2523;51.058;6.922;2023-02-04T15:32:10;9.40;99.90
5009;DHT22;2523;51.058;6.922;2023-02-04T15:34:36;9.40;99.90
5009;DHT22;2523;51.058;6.922;2023-02-04T15:37:02;9.50;99.90
5009;DHT22;2523;51.058;6.922;2023-02-04T15:39:27;9.40;99.90
5009;DHT22;2523;51.058;6.922;2023-02-04T15:41:53;9.40;99.90
5009;DHT22;2523;51.058;6.922;2023-02-04T15:44:18;9.30;99.90
5009;DHT22;2523;51.058;6.922;2023-02-04T15:46:45;9.20;99.90
5009;DHT22;2523;51.058;6.922;2023-02-04T15:49:11;9.30;99.90
5009;DHT22;2523;51.058;6.922;2023-02-04T15:51:36;9.20;99.90
5009;DHT22;2523;51.058;6.922;2023-02-04T15:54:02;9.30;99.90
5009;DHT22;2523;51.058;6.922;2023-02-04T15:56:28;9.20;99.90
5009;DHT22;2523;51.058;6.922;2023-02-04T15:58:53;9.20;99.90
5009;DHT22;2523;51.058;6.922;2023-02-04T16:01:19;9.20;99.90
5009;DHT22;2523;51.058;6.922;2023-02-04T16:03:45;9.10;99.90
5009;DHT22;2523;51.058;6.922;2023-02-04T16:06:11;9.10;99.90
5009;DHT22;2523;51.058;6.922;2023-02-04T16:08:37;9.20;99.90
5009;DHT22;2523;51.058;6.922;2023-02-04T16:11:03;9.10;99.90
5009;DHT22;2523;51.058;6.922;2023-02-04T16:13:28;9.00;99.90
5009;DHT22;2523;51.058;6.922;2023-02-04T16:15:54;9.00;99.90
5009;DHT22;2523;51.058;6.922;2023-02-04T16:18:19;9.00;99.90
5009;DHT22;2523;51.058;6.922;2023-02-04T16:20:45;9.00;99.90
5009;DHT22;2523;51.058;6.922;2023-02-04T16:23:11;8.90;99.90
5009;DHT22;2523;51.058;6.922;2023-02-04T16:25:36;8.90;99.90